Time;durP1;ratioP1;P1;durP2;ratioP2;P2;SDS_P1;SDS_P2;PMS_P1;PMS_P2;Temp;Humidity;BMP_temperature;BMP_pressure;BME280_temperature;BME280_humidity;BME280_pressure;Samples;Min_cycle;Max_cycle;Signal;HPM_P1;HPM_P2
2022/01/06 00:01:57;;;;;;;17.02;2.22;;;3.60;99.90;;;;;;12465556;28;20123;-35
2022/01/06 00:08:00;;;;;;;19.15;2.47;;;3.60;99.90;;;;;;12466998;28;20472;-39
2022/01/06 00:26:31;;;;;;;15.27;2.25;;;3.60;99.90;;;;;;12465016;28;20049;-39
2022/01/06 00:32:33;;;;;;;10.18;1.48;;;3.60;99.90;;;;;;12463763;28;20844;-38
2022/01/06 00:38:35;;;;;;;5.28;0.90;;;3.40;99.90;;;;;;12464853;28;20131;-38
2022/01/06 00:44:37;;;;;;;4.32;0.85;;;3.20;99.90;;;;;;12465486;28;20481;-36
2022/01/06 00:50:42;;;;;;;4.78;0.90;;;3.10;99.90;;;;;;12463077;28;20630;-38
2022/01/06 00:56:44;;;;;;;10.73;1.40;;;3.00;99.90;;;;;;12466332;28;20065;-38
2022/01/06 01:02:46;;;;;;;8.18;1.60;;;3.00;99.90;;;;;;12463544;28;20045;-35
2022/01/06 01:08:48;;;;;;;11.32;1.70;;;3.00;99.90;;;;;;12462550;28;20157;-37
2022/01/06 01:15:04;;;;;;;10.77;1.95;;;3.00;99.90;;;;;;12458430;28;20176;-36
2022/01/06 01:21:05;;;;;;;11.65;2.60;;;3.10;99.90;;;;;;12460382;28;20111;-37
2022/01/06 01:27:07;;;;;;;15.02;2.13;;;3.20;99.90;;;;;;12461002;28;20045;-38
2022/01/06 01:33:15;;;;;;;16.55;2.35;;;3.10;99.90;;;;;;12459825;28;20169;-36
2022/01/06 01:39:17;;;;;;;12.13;1.95;;;3.10;99.90;;;;;;12462178;28;20187;-37
2022/01/06 01:45:24;;;;;;;18.30;2.13;;;3.20;99.90;;;;;;12461764;28;20087;-37
2022/01/06 01:51:26;;;;;;;8.43;1.77;;;3.30;99.90;;;;;;12461007;28;20060;-36
2022/01/06 01:57:28;;;;;;;10.50;1.92;;;3.20;99.90;;;;;;12451849;28;20072;-38
2022/01/06 02:03:30;;;;;;;11.82;1.77;;;3.20;99.90;;;;;;12460293;28;20053;-36
2022/01/06 02:09:32;;;;;;;15.85;2.10;;;3.00;99.90;;;;;;12462720;28;20137;-36
2022/01/06 02:15:35;;;;;;;9.75;2.17;;;2.90;99.90;;;;;;12460351;28;20045;-36
2022/01/06 02:21:41;;;;;;;7.25;2.33;;;2.80;99.90;;;;;;12459687;28;20076;-38
2022/01/06 02:27:47;;;;;;;13.55;1.75;;;2.70;99.90;;;;;;12457200;28;20549;-36
2022/01/06 02:33:49;;;;;;;8.60;1.98;;;2.60;99.90;;;;;;12460397;28;20572;-36
2022/01/06 02:39:51;;;;;;;7.28;1.95;;;2.50;99.90;;;;;;12460434;28;20477;-36
2022/01/06 02:45:53;;;;;;;7.20;2.08;;;2.40;99.90;;;;;;12467211;28;20053;-36
2022/01/06 02:51:55;;;;;;;6.63;1.95;;;2.20;99.90;;;;;;12467246;28;20052;-36
2022/01/06 02:57:57;;;;;;;10.90;2.00;;;2.10;99.90;;;;;;12469747;28;20057;-36
2022/01/06 03:03:59;;;;;;;11.10;2.15;;;2.10;99.90;;;;;;12466002;28;20050;-36
2022/01/06 03:10:04;;;;;;;8.18;2.30;;;2.00;99.90;;;;;;12463756;28;20052;-39
2022/01/06 03:16:06;;;;;;;10.88;2.47;;;1.90;99.90;;;;;;12465189;28;20634;-38
2022/01/06 03:22:08;;;;;;;15.73;2.78;;;1.80;99.90;;;;;;12470459;28;20057;-38
2022/01/06 03:28:10;;;;;;;12.77;3.70;;;1.80;99.90;;;;;;12467982;28;20559;-36
2022/01/06 03:34:13;;;;;;;11.77;2.53;;;1.70;99.90;;;;;;12467377;28;20128;-36
2022/01/06 03:40:15;;;;;;;14.57;2.58;;;1.70;99.90;;;;;;12468003;28;20045;-37
2022/01/06 03:46:17;;;;;;;18.08;2.45;;;1.50;99.90;;;;;;12467119;28;20489;-38
2022/01/06 03:52:19;;;;;;;15.57;2.38;;;1.40;99.90;;;;;;12466754;28;20045;-36
2022/01/06 03:58:21;;;;;;;14.02;2.53;;;1.30;99.90;;;;;;12465440;28;20103;-41
2022/01/06 04:04:23;;;;;;;18.60;3.30;;;1.20;99.90;;;;;;12450668;28;20124;-38
2022/01/06 04:10:25;;;;;;;10.80;2.28;;;1.10;99.90;;;;;;12465048;28;20088;-37
2022/01/06 04:16:29;;;;;;;14.77;2.70;;;1.10;99.90;;;;;;12466503;28;20398;-38
2022/01/06 04:22:31;;;;;;;14.13;1.88;;;1.10;99.90;;;;;;12463075;28;20053;-36
2022/01/06 04:28:33;;;;;;;16.15;2.40;;;1.10;99.90;;;;;;12464431;28;20056;-36
2022/01/06 04:34:35;;;;;;;16.67;2.25;;;1.00;99.90;;;;;;12465360;28;20057;-36
2022/01/06 04:40:38;;;;;;;11.63;2.10;;;1.10;99.90;;;;;;12448111;28;20048;-36
2022/01/06 04:46:39;;;;;;;11.43;2.00;;;1.00;99.90;;;;;;12465503;28;20136;-37
2022/01/06 04:52:42;;;;;;;16.70;2.78;;;1.00;99.90;;;;;;12463585;28;20053;-36
2022/01/06 04:58:43;;;;;;;16.15;3.08;;;1.00;99.90;;;;;;12465483;28;20698;-38
2022/01/06 05:04:46;;;;;;;10.30;2.42;;;0.90;99.90;;;;;;12465734;28;20049;-36
2022/01/06 05:10:48;;;;;;;20.58;2.78;;;1.00;99.90;;;;;;12460826;28;20168;-38
2022/01/06 05:16:50;;;;;;;13.82;2.50;;;1.00;99.90;;;;;;12464905;28;20376;-36
2022/01/06 05:22:56;;;;;;;14.93;2.33;;;1.00;99.90;;;;;;12460049;28;20469;-36
2022/01/06 05:28:58;;;;;;;12.60;1.95;;;1.00;99.90;;;;;;12462375;28;20065;-40
2022/01/06 05:35:00;;;;;;;18.42;3.10;;;1.10;99.90;;;;;;12461732;28;20061;-36
2022/01/06 05:41:02;;;;;;;15.05;1.77;;;1.00;99.90;;;;;;12462742;28;20046;-37
2022/01/06 05:47:04;;;;;;;14.35;3.35;;;1.10;99.90;;;;;;12459524;28;20861;-36
2022/01/06 05:53:06;;;;;;;17.83;2.47;;;1.20;99.90;;;;;;12460997;28;20091;-38
2022/01/06 05:59:08;;;;;;;15.05;2.28;;;1.30;99.90;;;;;;12462452;28;20057;-37
2022/01/06 06:05:10;;;;;;;15.70;2.50;;;1.30;99.90;;;;;;12445156;28;20053;-37
2022/01/06 06:11:12;;;;;;;15.10;2.47;;;1.30;99.90;;;;;;12459105;28;20053;-36
2022/01/06 06:17:14;;;;;;;16.70;2.90;;;1.30;99.90;;;;;;12461947;28;20106;-36
2022/01/06 06:23:16;;;;;;;14.75;2.88;;;1.40;99.90;;;;;;12470705;28;20076;-36
2022/01/06 06:29:19;;;;;;;16.23;3.38;;;1.40;99.90;;;;;;12468637;28;20104;-39
2022/01/06 06:35:20;;;;;;;14.43;3.03;;;1.50;99.90;;;;;;12468470;28;20132;-38
2022/01/06 06:41:22;;;;;;;9.80;2.38;;;1.60;99.90;;;;;;12467412;28;20172;-37
2022/01/06 06:47:25;;;;;;;9.75;2.67;;;1.60;99.90;;;;;;12469004;28;20485;-38
2022/01/06 06:53:26;;;;;;;14.80;3.20;;;1.60;99.90;;;;;;12467351;28;20554;-39
2022/01/06 06:59:28;;;;;;;13.52;3.17;;;1.60;99.90;;;;;;12464307;28;20110;-38
2022/01/06 07:05:30;;;;;;;12.25;2.90;;;1.60;99.90;;;;;;12464780;28;20049;-40
2022/01/06 07:11:33;;;;;;;12.95;3.88;;;1.40;99.90;;;;;;12464598;28;20061;-39
2022/01/06 07:17:35;;;;;;;15.43;4.05;;;1.30;99.90;;;;;;12464633;28;20422;-40
2022/01/06 07:23:37;;;;;;;14.57;3.60;;;1.20;99.90;;;;;;12462605;28;20136;-38
2022/01/06 07:29:39;;;;;;;21.40;4.13;;;1.20;99.90;;;;;;12465565;28;20045;-36
2022/01/06 07:35:41;;;;;;;15.02;4.22;;;1.10;99.90;;;;;;12467617;28;20053;-36
2022/01/06 07:41:43;;;;;;;11.18;3.67;;;1.00;99.90;;;;;;12469520;28;20049;-36
2022/01/06 07:54:17;;;;;;;20.25;4.07;;;1.10;99.90;;;;;;12452029;28;20167;-39
2022/01/06 08:00:20;;;;;;;16.33;3.45;;;1.10;99.90;;;;;;12460321;28;20123;-37
2022/01/06 08:06:22;;;;;;;14.55;4.20;;;1.20;99.90;;;;;;12460353;28;20049;-38
2022/01/06 08:12:25;;;;;;;22.55;4.93;;;1.30;99.90;;;;;;12463146;28;20049;-39
2022/01/06 08:18:28;;;;;;;19.08;5.57;;;1.30;99.90;;;;;;12466571;28;20160;-38
2022/01/06 08:24:29;;;;;;;23.33;4.50;;;1.30;99.90;;;;;;12460017;28;20980;-38
2022/01/06 08:30:32;;;;;;;16.23;4.18;;;1.30;99.90;;;;;;12462923;28;20049;-37
2022/01/06 08:36:34;;;;;;;41.50;4.82;;;1.40;99.90;;;;;;12462283;28;20149;-36
2022/01/06 08:42:36;;;;;;;24.33;5.40;;;1.40;99.90;;;;;;12443863;28;20144;-36
2022/01/06 08:48:38;;;;;;;22.50;5.85;;;1.50;99.90;;;;;;12441914;28;20064;-38
2022/01/06 08:54:40;;;;;;;19.48;5.55;;;1.50;99.90;;;;;;12443320;28;20081;-36
2022/01/06 09:00:46;;;;;;;20.63;7.72;;;1.60;99.90;;;;;;12444442;28;20195;-39
2022/01/06 09:06:50;;;;;;;17.08;7.45;;;1.60;99.90;;;;;;12436734;28;20096;-39
2022/01/06 09:12:52;;;;;;;29.77;9.68;;;1.60;99.90;;;;;;12454174;28;20156;-39
2022/01/06 09:18:54;;;;;;;23.77;7.65;;;1.70;99.90;;;;;;12452429;28;20053;-38
2022/01/06 09:24:56;;;;;;;24.90;8.93;;;1.70;99.90;;;;;;12449360;28;20053;-39
2022/01/06 09:30:58;;;;;;;20.67;7.78;;;1.70;99.90;;;;;;12434769;28;20465;-38
2022/01/06 09:37:01;;;;;;;16.75;7.07;;;1.70;99.90;;;;;;12448209;28;20045;-36
2022/01/06 09:43:03;;;;;;;15.48;6.22;;;1.80;99.90;;;;;;12448341;28;20053;-36
2022/01/06 09:49:05;;;;;;;18.73;6.03;;;1.90;99.90;;;;;;12453296;28;20053;-36
2022/01/06 09:55:10;;;;;;;16.03;4.93;;;2.00;99.90;;;;;;12451218;28;22085;-40
2022/01/06 10:01:16;;;;;;;15.25;5.05;;;2.10;99.90;;;;;;12454580;28;20120;-38
2022/01/06 10:07:19;;;;;;;15.38;4.53;;;2.20;99.90;;;;;;12453374;28;20077;-38
2022/01/06 10:13:25;;;;;;;15.63;4.65;;;2.30;99.90;;;;;;12452313;28;20048;-37
2022/01/06 10:19:27;;;;;;;13.45;4.35;;;2.50;99.90;;;;;;12435164;28;20435;-37
2022/01/06 10:25:38;;;;;;;11.38;4.13;;;2.60;99.90;;;;;;12453273;28;20065;-36
2022/01/06 10:32:10;;;;;;;14.82;4.30;;;2.60;99.90;;;;;;12455621;28;20366;-38
2022/01/06 10:38:12;;;;;;;14.75;4.10;;;2.90;99.90;;;;;;12451366;28;20045;-39
2022/01/06 10:44:14;;;;;;;12.55;3.45;;;2.90;99.90;;;;;;12452505;28;20046;-37
2022/01/06 10:50:25;;;;;;;14.27;3.08;;;3.10;99.90;;;;;;12455370;28;20056;-36
2022/01/06 10:56:28;;;;;;;10.02;2.90;;;3.20;99.90;;;;;;12453775;28;20452;-39
2022/01/06 11:02:30;;;;;;;11.35;2.95;;;3.30;99.90;;;;;;12445503;28;20172;-39
2022/01/06 11:08:37;;;;;;;10.05;2.63;;;3.50;99.90;;;;;;12443749;28;20056;-37
2022/01/06 11:14:42;;;;;;;10.15;2.60;;;3.70;99.90;;;;;;12462824;28;20057;-37
2022/01/06 11:20:45;;;;;;;15.73;2.90;;;3.90;99.90;;;;;;12461528;28;20049;-37
2022/01/06 11:27:08;;;;;;;15.93;3.20;;;4.00;99.90;;;;;;12444904;28;20093;-37
2022/01/06 11:33:12;;;;;;;13.82;2.55;;;4.00;99.90;;;;;;12456113;28;20053;-39
2022/01/06 11:39:29;;;;;;;17.90;3.80;;;4.30;99.90;;;;;;12460568;28;20079;-37
2022/01/06 11:45:31;;;;;;;14.35;3.00;;;4.40;99.90;;;;;;12459737;28;20577;-37
2022/01/06 11:51:37;;;;;;;14.70;4.00;;;4.30;99.90;;;;;;12462577;28;20059;-39
2022/01/06 11:57:39;;;;;;;11.70;2.90;;;4.50;99.90;;;;;;12462436;28;20144;-38
2022/01/06 12:03:44;;;;;;;13.75;2.65;;;4.50;99.90;;;;;;12459660;28;20156;-40
2022/01/06 12:10:07;;;;;;;10.82;2.60;;;4.50;99.90;;;;;;12459820;28;20104;-39
2022/01/06 12:16:09;;;;;;;11.10;2.70;;;4.50;99.90;;;;;;12460616;28;20655;-37
2022/01/06 12:22:11;;;;;;;9.13;2.80;;;4.60;99.90;;;;;;12458810;28;20053;-39
2022/01/06 12:28:13;;;;;;;8.60;2.25;;;4.50;99.90;;;;;;12458906;28;20079;-37
2022/01/06 12:34:17;;;;;;;13.50;2.50;;;4.50;99.90;;;;;;12451392;28;20045;-37
2022/01/06 12:40:30;;;;;;;10.63;2.92;;;4.50;99.90;;;;;;12455415;28;20184;-37
2022/01/06 12:46:38;;;;;;;9.85;2.42;;;4.50;99.90;;;;;;12457834;28;20071;-37
2022/01/06 12:52:46;;;;;;;14.68;3.20;;;4.30;99.90;;;;;;12439256;28;21615;-37
2022/01/06 12:58:50;;;;;;;18.02;3.15;;;4.30;99.90;;;;;;12443453;28;20045;-37
2022/01/06 13:04:52;;;;;;;16.10;3.40;;;4.30;99.90;;;;;;12444364;28;20091;-39
2022/01/06 13:11:05;;;;;;;13.35;2.97;;;4.30;99.90;;;;;;12459063;28;20076;-37
2022/01/06 13:17:12;;;;;;;11.05;3.17;;;4.30;99.90;;;;;;12458559;28;20098;-37
2022/01/06 13:23:41;;;;;;;14.40;3.88;;;4.50;99.90;;;;;;12458810;28;20046;-39
2022/01/06 13:29:51;;;;;;;14.30;2.97;;;4.60;99.90;;;;;;12461058;28;20478;-37
2022/01/06 13:36:03;;;;;;;14.75;3.20;;;4.40;99.90;;;;;;12457384;28;20324;-37
2022/01/06 13:42:06;;;;;;;8.52;2.67;;;4.20;99.90;;;;;;12460071;28;20132;-40
2022/01/06 13:54:30;;;;;;;19.08;3.53;;;3.80;99.90;;;;;;12457558;28;20069;-37
2022/01/06 14:00:32;;;;;;;12.55;4.15;;;3.60;99.90;;;;;;12458946;28;20490;-37
2022/01/06 14:06:35;;;;;;;17.20;4.05;;;3.50;99.90;;;;;;12462458;28;20769;-37
2022/01/06 14:12:37;;;;;;;20.13;3.42;;;3.50;99.90;;;;;;12461920;28;20686;-38
2022/01/06 14:18:39;;;;;;;15.15;3.10;;;3.50;99.90;;;;;;12457098;28;20421;-37
2022/01/06 14:24:42;;;;;;;17.00;3.20;;;3.40;99.90;;;;;;12461168;28;20409;-36
2022/01/06 14:30:44;;;;;;;15.93;2.90;;;3.50;99.90;;;;;;12459730;28;20110;-37
2022/01/06 14:36:46;;;;;;;16.85;3.22;;;3.50;99.90;;;;;;12455446;28;20136;-39
2022/01/06 14:42:49;;;;;;;18.08;2.88;;;3.40;99.90;;;;;;12466642;28;20087;-37
2022/01/06 14:48:51;;;;;;;12.63;2.75;;;3.30;99.90;;;;;;12469185;28;20087;-39
2022/01/06 14:54:53;;;;;;;12.93;2.85;;;3.20;99.90;;;;;;12467996;28;20049;-37
2022/01/06 15:00:55;;;;;;;17.33;3.00;;;3.20;99.90;;;;;;12467929;28;20722;-37
2022/01/06 15:06:57;;;;;;;18.15;2.70;;;3.00;99.90;;;;;;12464945;28;20144;-37
2022/01/06 15:12:59;;;;;;;14.60;2.60;;;3.00;99.90;;;;;;12463992;28;20107;-38
2022/01/06 15:19:02;;;;;;;24.45;3.78;;;2.90;99.90;;;;;;12463764;28;20049;-37
2022/01/06 15:25:06;;;;;;;17.27;3.28;;;2.80;99.90;;;;;;12461968;28;20292;-37
2022/01/06 15:31:08;;;;;;;17.27;3.47;;;2.70;99.90;;;;;;12466184;28;20095;-36
2022/01/06 15:37:10;;;;;;;16.73;3.90;;;2.60;99.90;;;;;;12464413;28;20049;-39
2022/01/06 15:43:16;;;;;;;20.92;4.53;;;2.60;99.90;;;;;;12466457;28;20108;-38
2022/01/06 15:49:19;;;;;;;17.95;6.25;;;2.50;99.90;;;;;;12463345;28;20060;-37
2022/01/06 15:55:25;;;;;;;18.92;6.20;;;2.40;99.90;;;;;;12465973;28;20049;-39
2022/01/06 16:08:10;;;;;;;17.50;5.22;;;2.20;99.90;;;;;;12363675;28;20136;-39
2022/01/06 16:14:12;;;;;;;29.55;6.38;;;2.20;99.90;;;;;;12462795;28;20995;-37
2022/01/06 16:20:15;;;;;;;20.58;6.20;;;2.10;99.90;;;;;;12461301;28;20053;-40
2022/01/06 16:26:17;;;;;;;24.10;6.45;;;2.10;99.90;;;;;;12461140;28;20059;-36
2022/01/06 16:32:21;;;;;;;19.35;5.80;;;2.10;99.90;;;;;;12460000;28;20060;-38
2022/01/06 16:38:24;;;;;;;20.63;6.75;;;2.10;99.90;;;;;;12462310;28;20059;-38
2022/01/06 16:44:26;;;;;;;18.42;5.97;;;2.10;99.90;;;;;;12463096;28;20518;-36
2022/01/06 16:50:30;;;;;;;28.95;6.57;;;2.00;99.90;;;;;;12460130;28;20057;-37
2022/01/06 16:56:32;;;;;;;23.42;7.05;;;2.00;99.90;;;;;;12463633;28;20060;-39
2022/01/06 17:02:36;;;;;;;21.35;7.07;;;2.00;99.90;;;;;;12461416;28;20081;-38
2022/01/06 17:08:40;;;;;;;;;;;2.00;99.90;;;;;;12461968;28;20084;-39
2022/01/06 17:14:42;;;;;;;24.98;7.15;;;2.00;99.90;;;;;;12462002;28;19978;-36
2022/01/06 17:20:45;;;;;;;26.98;6.75;;;1.90;99.90;;;;;;12463063;28;20055;-36
2022/01/06 17:26:48;;;;;;;31.67;7.78;;;1.80;99.90;;;;;;12455910;28;20046;-36
2022/01/06 17:32:50;;;;;;;26.70;8.00;;;1.80;99.90;;;;;;12456141;28;20096;-39
2022/01/06 17:38:52;;;;;;;35.28;10.05;;;1.90;99.90;;;;;;12459981;28;20053;-38
2022/01/06 17:44:54;;;;;;;36.53;12.00;;;1.90;99.90;;;;;;12454343;28;20049;-40
2022/01/06 17:51:00;;;;;;;32.85;10.65;;;1.90;99.90;;;;;;12447340;28;20045;-35
2022/01/06 17:57:03;;;;;;;24.90;9.63;;;1.90;99.90;;;;;;12439838;28;20111;-36
2022/01/06 18:03:05;;;;;;;35.85;9.85;;;1.90;99.90;;;;;;12460343;28;20068;-36
2022/01/06 18:15:16;;;;;;;29.15;10.02;;;1.90;99.90;;;;;;12462471;28;20060;-36
2022/01/06 18:21:18;;;;;;;33.78;10.32;;;1.90;99.90;;;;;;12467389;28;20115;-39
2022/01/06 18:27:21;;;;;;;30.48;10.50;;;1.90;99.90;;;;;;12466101;28;20068;-39
2022/01/06 18:33:22;;;;;;;28.05;10.25;;;1.80;99.90;;;;;;12469475;28;20056;-36
2022/01/06 18:39:24;;;;;;;35.88;10.90;;;1.90;99.90;;;;;;12470395;28;20525;-38
2022/01/06 18:45:26;;;;;;;29.17;10.45;;;1.90;99.90;;;;;;12467424;28;20053;-36
2022/01/06 18:51:29;;;;;;;37.55;10.85;;;1.90;99.90;;;;;;12469341;28;20057;-38
2022/01/06 18:57:32;;;;;;;35.47;11.10;;;1.90;99.90;;;;;;12471161;28;20046;-35
2022/01/06 19:03:35;;;;;;;25.27;9.90;;;1.90;99.90;;;;;;12468271;28;20092;-38
2022/01/06 19:09:38;;;;;;;32.90;11.02;;;1.80;99.90;;;;;;12470038;28;20057;-39
2022/01/06 19:15:55;;;;;;;35.75;10.98;;;1.70;99.90;;;;;;12467487;28;20118;-37
2022/01/06 19:21:58;;;;;;;34.88;11.30;;;1.70;99.90;;;;;;12469885;28;20128;-37
2022/01/06 19:28:00;;;;;;;27.98;10.00;;;1.70;99.90;;;;;;12469994;28;20057;-36
2022/01/06 19:34:02;;;;;;;34.85;10.38;;;1.70;99.90;;;;;;12463505;28;20136;-36
2022/01/06 19:40:10;;;;;;;31.67;10.73;;;1.60;99.90;;;;;;12466357;28;20095;-39
2022/01/06 19:46:14;;;;;;;31.58;10.07;;;1.70;99.90;;;;;;12467191;28;20045;-38
2022/01/06 19:52:16;;;;;;;31.20;10.30;;;1.70;99.90;;;;;;12467682;28;20060;-38
2022/01/06 19:58:22;;;;;;;33.03;12.02;;;1.70;99.90;;;;;;12466085;28;20092;-36
2022/01/06 20:04:27;;;;;;;34.50;11.48;;;1.70;99.90;;;;;;12467909;28;20079;-38
2022/01/06 20:10:29;;;;;;;36.15;10.90;;;1.70;99.90;;;;;;12465418;28;20501;-39
2022/01/06 20:16:31;;;;;;;28.90;10.30;;;1.70;99.90;;;;;;12466245;28;20049;-38
2022/01/06 20:22:33;;;;;;;36.08;10.48;;;1.70;99.90;;;;;;12463528;28;20049;-37
2022/01/06 20:28:35;;;;;;;26.45;9.82;;;1.60;99.90;;;;;;12462010;28;20469;-38
2022/01/06 20:34:37;;;;;;;38.78;11.02;;;1.50;99.90;;;;;;12465415;28;20049;-38
2022/01/06 20:40:42;;;;;;;35.50;11.15;;;1.40;99.90;;;;;;12445901;28;20581;-39
2022/01/06 20:46:52;;;;;;;33.38;11.05;;;1.30;99.90;;;;;;12466594;28;20451;-39
2022/01/06 20:52:55;;;;;;;34.28;10.57;;;1.30;99.90;;;;;;12462806;28;20060;-36
2022/01/06 20:58:57;;;;;;;29.65;9.55;;;1.30;99.90;;;;;;12465400;28;20057;-39
2022/01/06 21:04:59;;;;;;;34.03;10.13;;;1.30;99.90;;;;;;12465269;28;20073;-38
2022/01/06 21:11:03;;;;;;;23.08;10.13;;;1.30;99.90;;;;;;12464532;28;20467;-38
2022/01/06 21:17:07;;;;;;;27.53;10.00;;;1.30;99.90;;;;;;12466526;28;20053;-38
2022/01/06 21:23:09;;;;;;;28.23;9.87;;;1.30;99.90;;;;;;12463914;28;20148;-40
2022/01/06 21:29:13;;;;;;;28.25;9.68;;;1.30;99.90;;;;;;12462124;28;20049;-37
2022/01/06 21:35:16;;;;;;;20.67;9.07;;;1.30;99.90;;;;;;12462926;28;20053;-37
2022/01/06 21:41:18;;;;;;;28.33;10.32;;;1.20;99.90;;;;;;12463341;28;20109;-38
2022/01/06 21:47:20;;;;;;;28.42;10.00;;;1.20;99.90;;;;;;12463734;28;20575;-38
2022/01/06 21:53:26;;;;;;;27.27;9.93;;;1.20;99.90;;;;;;12462756;28;20050;-38
2022/01/06 21:59:28;;;;;;;32.35;10.05;;;1.30;99.90;;;;;;12460996;28;20128;-36
2022/01/06 22:05:30;;;;;;;24.33;10.05;;;1.20;99.90;;;;;;12465543;28;20093;-39
2022/01/06 22:11:33;;;;;;;31.95;9.88;;;1.30;99.90;;;;;;12458798;28;20081;-36
2022/01/06 22:17:35;;;;;;;31.98;10.43;;;1.30;99.90;;;;;;12464082;28;20073;-38
2022/01/06 22:23:38;;;;;;;29.38;9.27;;;1.40;99.90;;;;;;12463290;28;20528;-38
2022/01/06 22:29:43;;;;;;;44.53;12.45;;;1.40;99.90;;;;;;12460361;28;20057;-36
2022/01/06 22:35:48;;;;;;;35.85;11.23;;;1.40;99.90;;;;;;12459739;28;20080;-36
2022/01/06 22:41:50;;;;;;;26.48;10.35;;;1.40;99.90;;;;;;12463603;28;21149;-38
2022/01/06 22:47:52;;;;;;;23.23;8.73;;;1.50;99.90;;;;;;12462236;28;20049;-36
2022/01/06 22:53:54;;;;;;;22.10;9.23;;;1.60;99.90;;;;;;12454058;28;20579;-38
2022/01/06 22:59:56;;;;;;;24.02;9.20;;;1.60;99.90;;;;;;12443992;28;20050;-36
2022/01/06 23:05:58;;;;;;;33.33;9.02;;;1.60;99.90;;;;;;12449275;28;20076;-38
2022/01/06 23:12:00;;;;;;;28.25;10.63;;;1.50;99.90;;;;;;12412620;28;20097;-36
2022/01/06 23:18:02;;;;;;;23.55;7.68;;;1.60;99.90;;;;;;12452081;28;20058;-39
2022/01/06 23:24:04;;;;;;;26.90;8.75;;;1.60;99.90;;;;;;12451782;28;20077;-35
2022/01/06 23:30:11;;;;;;;27.55;8.02;;;1.60;99.90;;;;;;12452233;28;20049;-38
2022/01/06 23:36:14;;;;;;;24.08;7.15;;;1.70;99.90;;;;;;12449626;28;20126;-38
2022/01/06 23:42:24;;;;;;;17.67;7.13;;;1.60;99.90;;;;;;12451754;28;20104;-36
2022/01/06 23:48:26;;;;;;;21.23;7.20;;;1.70;99.90;;;;;;12452187;28;20053;-39
2022/01/06 23:54:28;;;;;;;25.08;7.15;;;1.70;99.90;;;;;;12462571;28;20679;-36
